Defiance, Ohio
Current Conditions -  °F | °C
As of 8:55 PM on Thursday 18 Dec 2014 (Local Time) from KUSE Reporting Station
Overcast Overcast  
Wind Chill: 22°   Ceiling: 1200
Heat Index: 30°   Visibility: 10mi
Dew Point: 27°   Wind: 9mph
Humidity: 86%   Direction: 280°W
Pressure: 30.2"   Gusts: NA
Location:  41.29°N, 84.36°W
Report Text: KUSE 190155Z AUTO 28008KT 10SM BKN012 OVC030 M01/M03 A3020 RMK AO2
Loading
Personal Weather Stations






























Interactive Weather Map New forecast layout! Learn more

10-Day Weather Forecast

Advertisements
Track Severe Weather on mobile